Terminal Aerodrome Forecast
Issued by NWS

Home | Current Version | Previous Version | Text Only | Print | Product List | Glossary On
Versions: 1 2 3 4 5 6 7 8 9 10 11 12 13 14 15 16 17 18 19 20 21 22 23
000
FTUS45 KBOI 152332
TAFJER
TAF
KJER 152332Z 1600/1624 01005KT P6SM SCT150
     FM160200 07007KT P6SM SCT120
     FM161200 05010KT P6SM BKN100
     FM162000 26007KT P6SM SCT100=

USA.gov is the U.S. government's official web portal to all federal, state and local government web resources and services.